TCA7111 SVMI-SVMG
Flight info
| Callsign | TCA7111 |
|---|---|
| Flight time | 0h 35m |
| Altitude | 23000 |
| Route | OSMAR2 OSMAR W19 DOSRA UW19 CHALO EKONU |
| Aircraft | B736/M-SDE2E3FGHIRWXY/LB1 |
Departure
| Time | 2026-04-23 01:39 |
|---|---|
| Airport | Maiquetía Simón Bolívar International Airport (SVMI) |
Arrival
| Time | 2026-04-23 02:14 |
|---|---|
| Airport | Del Caribe Santiago Mariño International Airport (SVMG) |
| Time | Latitude | Longitude | Altitude | Speed | Heading |
|---|---|---|---|---|---|
| 2026-04-23 01:24 | 10.59833 | -67.00011 | 219 ft | 0 kts | 178° |
| 2026-04-23 01:32 | 10.59839 | -67.00011 | 219 ft | 2 kts | 179° |
| 2026-04-23 01:33 | 10.59856 | -67.00012 | 219 ft | 2 kts | 179° |
| 2026-04-23 01:33 | 10.59872 | -67.00012 | 219 ft | 2 kts | 179° |
| 2026-04-23 01:33 | 10.59888 | -67.00013 | 219 ft | 2 kts | 154° |
| 2026-04-23 01:33 | 10.59894 | -67.00016 | 219 ft | 0 kts | 137° |
| 2026-04-23 01:34 | 10.59893 | -67.00015 | 219 ft | 2 kts | 134° |
| 2026-04-23 01:34 | 10.59896 | -66.99970 | 220 ft | 12 kts | 64° |
| 2026-04-23 01:35 | 10.59959 | -66.99918 | 218 ft | 14 kts | 3° |
| 2026-04-23 01:35 | 10.60063 | -66.99915 | 217 ft | 16 kts | 0° |
| 2026-04-23 01:35 | 10.60134 | -66.99841 | 215 ft | 17 kts | 84° |
| 2026-04-23 01:35 | 10.60142 | -66.99715 | 211 ft | 18 kts | 98° |
| 2026-04-23 01:36 | 10.60044 | -66.99663 | 222 ft | 17 kts | 178° |
| 2026-04-23 01:36 | 10.60007 | -66.99661 | 216 ft | 0 kts | 179° |
| 2026-04-23 01:36 | 10.60005 | -66.99661 | 216 ft | 3 kts | 179° |
| 2026-04-23 01:36 | 10.59938 | -66.99659 | 218 ft | 12 kts | 167° |
| 2026-04-23 01:37 | 10.59912 | -66.99605 | 214 ft | 0 kts | 81° |
| 2026-04-23 01:38 | 10.59986 | -66.99305 | 198 ft | 100 kts | 76° |
| 2026-04-23 01:38 | 10.60226 | -66.98336 | 473 ft | 163 kts | 75° |
| 2026-04-23 01:39 | 10.60568 | -66.97076 | 1258 ft | 207 kts | 74° |
| 2026-04-23 01:39 | 10.61011 | -66.95561 | 1769 ft | 237 kts | 73° |
| 2026-04-23 01:39 | 10.61503 | -66.93922 | 2259 ft | 245 kts | 73° |
| 2026-04-23 01:39 | 10.62009 | -66.92253 | 2764 ft | 247 kts | 72° |
| 2026-04-23 01:40 | 10.62518 | -66.90582 | 3270 ft | 248 kts | 71° |
| 2026-04-23 01:40 | 10.63033 | -66.88891 | 3782 ft | 252 kts | 71° |
| 2026-04-23 01:40 | 10.63557 | -66.87181 | 4238 ft | 255 kts | 72° |
| 2026-04-23 01:40 | 10.64081 | -66.85468 | 4744 ft | 258 kts | 72° |
| 2026-04-23 01:41 | 10.64616 | -66.83717 | 5251 ft | 261 kts | 72° |
| 2026-04-23 01:41 | 10.65157 | -66.81954 | 5758 ft | 262 kts | 73° |
| 2026-04-23 01:41 | 10.65702 | -66.80179 | 6259 ft | 263 kts | 73° |
| 2026-04-23 01:41 | 10.66249 | -66.78394 | 6763 ft | 265 kts | 73° |
| 2026-04-23 01:42 | 10.66799 | -66.76596 | 7265 ft | 267 kts | 73° |
| 2026-04-23 01:42 | 10.67355 | -66.74783 | 7767 ft | 270 kts | 73° |
| 2026-04-23 01:42 | 10.67919 | -66.72953 | 8282 ft | 272 kts | 73° |
| 2026-04-23 01:42 | 10.68484 | -66.71105 | 8780 ft | 276 kts | 73° |
| 2026-04-23 01:43 | 10.69059 | -66.69223 | 9294 ft | 281 kts | 73° |
| 2026-04-23 01:43 | 10.69635 | -66.67330 | 9785 ft | 281 kts | 73° |
| 2026-04-23 01:43 | 10.70209 | -66.65433 | 10270 ft | 286 kts | 73° |
| 2026-04-23 01:43 | 10.70809 | -66.63484 | 10782 ft | 290 kts | 72° |
| 2026-04-23 01:44 | 10.71415 | -66.61513 | 11295 ft | 298 kts | 72° |
| 2026-04-23 01:44 | 10.72053 | -66.59428 | 11762 ft | 321 kts | 72° |
| 2026-04-23 01:44 | 10.72730 | -66.57214 | 12167 ft | 331 kts | 72° |
| 2026-04-23 01:44 | 10.73413 | -66.54958 | 12685 ft | 337 kts | 72° |
| 2026-04-23 01:45 | 10.74080 | -66.52653 | 13541 ft | 340 kts | 73° |
| 2026-04-23 01:45 | 10.74741 | -66.50333 | 14487 ft | 342 kts | 73° |
| 2026-04-23 01:45 | 10.75406 | -66.48000 | 15350 ft | 346 kts | 73° |
| 2026-04-23 01:45 | 10.76081 | -66.45635 | 16150 ft | 350 kts | 73° |
| 2026-04-23 01:46 | 10.76766 | -66.43243 | 16926 ft | 355 kts | 73° |
| 2026-04-23 01:46 | 10.77461 | -66.40817 | 17692 ft | 359 kts | 73° |
| 2026-04-23 01:46 | 10.78157 | -66.38393 | 18431 ft | 363 kts | 73° |
| 2026-04-23 01:46 | 10.78869 | -66.35909 | 19152 ft | 368 kts | 73° |
| 2026-04-23 01:47 | 10.79587 | -66.33395 | 19860 ft | 372 kts | 73° |
| 2026-04-23 01:47 | 10.80303 | -66.30848 | 20560 ft | 376 kts | 73° |
| 2026-04-23 01:47 | 10.81025 | -66.28265 | 21234 ft | 381 kts | 73° |
| 2026-04-23 01:47 | 10.81752 | -66.25656 | 21894 ft | 385 kts | 73° |
| 2026-04-23 01:48 | 10.82487 | -66.23022 | 22526 ft | 389 kts | 73° |
| 2026-04-23 01:48 | 10.83230 | -66.20358 | 22977 ft | 394 kts | 74° |
| 2026-04-23 01:48 | 10.83994 | -66.17621 | 22982 ft | 409 kts | 74° |
| 2026-04-23 01:48 | 10.84783 | -66.14792 | 23002 ft | 423 kts | 74° |
| 2026-04-23 01:49 | 10.85599 | -66.11870 | 23006 ft | 434 kts | 74° |
| 2026-04-23 01:49 | 10.86425 | -66.08913 | 23006 ft | 445 kts | 74° |
| 2026-04-23 01:49 | 10.87279 | -66.05851 | 23003 ft | 453 kts | 74° |
| 2026-04-23 01:49 | 10.88146 | -66.02739 | 22999 ft | 460 kts | 74° |
| 2026-04-23 01:50 | 10.89027 | -65.99579 | 22998 ft | 466 kts | 74° |
| 2026-04-23 01:50 | 10.89745 | -65.96348 | 22988 ft | 471 kts | 81° |
| 2026-04-23 01:50 | 10.89975 | -65.93008 | 22995 ft | 474 kts | 89° |
| 2026-04-23 01:50 | 10.89991 | -65.89664 | 22987 ft | 473 kts | 90° |
| 2026-04-23 01:51 | 10.89974 | -65.86313 | 22981 ft | 472 kts | 90° |
| 2026-04-23 01:51 | 10.89956 | -65.82968 | 22983 ft | 472 kts | 90° |
| 2026-04-23 01:51 | 10.89947 | -65.79670 | 22985 ft | 472 kts | 90° |
| 2026-04-23 01:51 | 10.89951 | -65.76317 | 22989 ft | 472 kts | 90° |
| 2026-04-23 01:52 | 10.89965 | -65.72979 | 22991 ft | 472 kts | 89° |
| 2026-04-23 01:52 | 10.89985 | -65.69634 | 22990 ft | 472 kts | 89° |
| 2026-04-23 01:52 | 10.90006 | -65.66287 | 22991 ft | 472 kts | 89° |
| 2026-04-23 01:52 | 10.90029 | -65.62928 | 22989 ft | 472 kts | 89° |
| 2026-04-23 01:53 | 10.90051 | -65.59586 | 22990 ft | 472 kts | 89° |
| 2026-04-23 01:53 | 10.90073 | -65.56243 | 22993 ft | 473 kts | 89° |
| 2026-04-23 01:53 | 10.90094 | -65.52908 | 22982 ft | 466 kts | 89° |
| 2026-04-23 01:53 | 10.90113 | -65.49733 | 22971 ft | 444 kts | 89° |
| 2026-04-23 01:54 | 10.90130 | -65.46670 | 22968 ft | 423 kts | 89° |
| 2026-04-23 01:54 | 10.90147 | -65.43738 | 22974 ft | 407 kts | 89° |
| 2026-04-23 01:54 | 10.90164 | -65.40841 | 22977 ft | 408 kts | 89° |
| 2026-04-23 01:54 | 10.90180 | -65.37944 | 22565 ft | 408 kts | 89° |
| 2026-04-23 01:55 | 10.90195 | -65.35062 | 22067 ft | 406 kts | 89° |
| 2026-04-23 01:55 | 10.90209 | -65.32208 | 21550 ft | 401 kts | 89° |
| 2026-04-23 01:55 | 10.90224 | -65.29414 | 21026 ft | 397 kts | 89° |
| 2026-04-23 01:55 | 10.90240 | -65.26610 | 20504 ft | 394 kts | 89° |
| 2026-04-23 01:56 | 10.90255 | -65.23835 | 19979 ft | 391 kts | 89° |
| 2026-04-23 01:56 | 10.90270 | -65.21082 | 19453 ft | 388 kts | 89° |
| 2026-04-23 01:56 | 10.90283 | -65.18348 | 18935 ft | 385 kts | 89° |
| 2026-04-23 01:56 | 10.90295 | -65.15624 | 18418 ft | 382 kts | 89° |
| 2026-04-23 01:57 | 10.90308 | -65.12956 | 17910 ft | 379 kts | 89° |
| 2026-04-23 01:57 | 10.90320 | -65.10287 | 17401 ft | 376 kts | 89° |
| 2026-04-23 01:57 | 10.90332 | -65.07632 | 16892 ft | 373 kts | 89° |
| 2026-04-23 01:57 | 10.90344 | -65.05007 | 16387 ft | 370 kts | 89° |
| 2026-04-23 01:58 | 10.90356 | -65.02393 | 15883 ft | 368 kts | 89° |
| 2026-04-23 01:58 | 10.90364 | -65.00672 | 15550 ft | 366 kts | 89° |
| 2026-04-23 01:58 | 10.90375 | -64.98087 | 15052 ft | 363 kts | 89° |
| 2026-04-23 01:58 | 10.90385 | -64.95529 | 14550 ft | 360 kts | 89° |
| 2026-04-23 01:59 | 10.90396 | -64.92987 | 14054 ft | 358 kts | 89° |
| 2026-04-23 01:59 | 10.90406 | -64.90461 | 13558 ft | 355 kts | 89° |
| 2026-04-23 01:59 | 10.90416 | -64.87951 | 13064 ft | 353 kts | 89° |
| 2026-04-23 01:59 | 10.90426 | -64.85453 | 12571 ft | 351 kts | 89° |
| 2026-04-23 02:00 | 10.90435 | -64.83005 | 12087 ft | 349 kts | 89° |
| 2026-04-23 02:00 | 10.90444 | -64.80549 | 11687 ft | 344 kts | 89° |
| 2026-04-23 02:00 | 10.90453 | -64.78165 | 11547 ft | 331 kts | 89° |
| 2026-04-23 02:00 | 10.90461 | -64.75851 | 11389 ft | 321 kts | 89° |
| 2026-04-23 02:01 | 10.90468 | -64.73618 | 11248 ft | 311 kts | 89° |
| 2026-04-23 02:01 | 10.90476 | -64.71451 | 11117 ft | 301 kts | 89° |
| 2026-04-23 02:01 | 10.90483 | -64.69355 | 10990 ft | 292 kts | 90° |
| 2026-04-23 02:01 | 10.90490 | -64.67324 | 10815 ft | 285 kts | 90° |
| 2026-04-23 02:02 | 10.90496 | -64.65295 | 10455 ft | 286 kts | 90° |
| 2026-04-23 02:02 | 10.90506 | -64.63272 | 10115 ft | 285 kts | 89° |
| 2026-04-23 02:02 | 10.90533 | -64.61263 | 9782 ft | 283 kts | 89° |
| 2026-04-23 02:02 | 10.90563 | -64.59291 | 9476 ft | 282 kts | 89° |
| 2026-04-23 02:03 | 10.90593 | -64.57304 | 9163 ft | 280 kts | 89° |
| 2026-04-23 02:03 | 10.90624 | -64.55326 | 8854 ft | 279 kts | 89° |
| 2026-04-23 02:03 | 10.90653 | -64.53359 | 8543 ft | 277 kts | 89° |
| 2026-04-23 02:03 | 10.90682 | -64.51403 | 8246 ft | 276 kts | 89° |
| 2026-04-23 02:04 | 10.90710 | -64.49460 | 7945 ft | 274 kts | 89° |
| 2026-04-23 02:04 | 10.90737 | -64.47519 | 7645 ft | 272 kts | 89° |
| 2026-04-23 02:04 | 10.90764 | -64.45601 | 7303 ft | 270 kts | 89° |
| 2026-04-23 02:04 | 10.90791 | -64.43693 | 6789 ft | 269 kts | 89° |
| 2026-04-23 02:05 | 10.90817 | -64.41794 | 6288 ft | 267 kts | 89° |
| 2026-04-23 02:05 | 10.90843 | -64.39933 | 5796 ft | 266 kts | 89° |
| 2026-04-23 02:05 | 10.90841 | -64.38056 | 5296 ft | 265 kts | 93° |
| 2026-04-23 02:05 | 10.90693 | -64.36199 | 4798 ft | 262 kts | 95° |
| 2026-04-23 02:06 | 10.90502 | -64.34362 | 4360 ft | 258 kts | 95° |
| 2026-04-23 02:06 | 10.90309 | -64.32570 | 4005 ft | 251 kts | 95° |
| 2026-04-23 02:06 | 10.90126 | -64.30834 | 3677 ft | 241 kts | 94° |
| 2026-04-23 02:06 | 10.89954 | -64.29177 | 3414 ft | 230 kts | 94° |
| 2026-04-23 02:07 | 10.89793 | -64.27593 | 3178 ft | 221 kts | 94° |
| 2026-04-23 02:07 | 10.89640 | -64.26055 | 2938 ft | 214 kts | 93° |
| 2026-04-23 02:07 | 10.89496 | -64.24603 | 2705 ft | 204 kts | 93° |
| 2026-04-23 02:07 | 10.89355 | -64.23192 | 2460 ft | 198 kts | 94° |
| 2026-04-23 02:08 | 10.89217 | -64.21805 | 2265 ft | 195 kts | 94° |
| 2026-04-23 02:08 | 10.89086 | -64.20481 | 2194 ft | 179 kts | 94° |
| 2026-04-23 02:08 | 10.88967 | -64.19287 | 2169 ft | 157 kts | 94° |
| 2026-04-23 02:08 | 10.88866 | -64.18253 | 2215 ft | 144 kts | 94° |
| 2026-04-23 02:09 | 10.88767 | -64.17217 | 2212 ft | 150 kts | 94° |
| 2026-04-23 02:09 | 10.88664 | -64.16160 | 2216 ft | 149 kts | 94° |
| 2026-04-23 02:09 | 10.88560 | -64.15094 | 2208 ft | 150 kts | 94° |
| 2026-04-23 02:09 | 10.88458 | -64.14050 | 2208 ft | 150 kts | 94° |
| 2026-04-23 02:10 | 10.88354 | -64.12993 | 2195 ft | 150 kts | 94° |
| 2026-04-23 02:10 | 10.88252 | -64.11937 | 2198 ft | 150 kts | 93° |
| 2026-04-23 02:10 | 10.88355 | -64.10902 | 2203 ft | 145 kts | 70° |
| 2026-04-23 02:10 | 10.88605 | -64.09900 | 2202 ft | 147 kts | 77° |
| 2026-04-23 02:11 | 10.88798 | -64.08878 | 2206 ft | 148 kts | 77° |
| 2026-04-23 02:11 | 10.89002 | -64.07839 | 2108 ft | 151 kts | 77° |
| 2026-04-23 02:11 | 10.89211 | -64.06801 | 1908 ft | 149 kts | 76° |
| 2026-04-23 02:11 | 10.89417 | -64.05777 | 1703 ft | 147 kts | 77° |
| 2026-04-23 02:12 | 10.89623 | -64.04755 | 1500 ft | 148 kts | 77° |
| 2026-04-23 02:12 | 10.89830 | -64.03731 | 1288 ft | 146 kts | 77° |
| 2026-04-23 02:12 | 10.90027 | -64.02759 | 1110 ft | 139 kts | 77° |
| 2026-04-23 02:12 | 10.90220 | -64.01800 | 897 ft | 138 kts | 77° |
| 2026-04-23 02:13 | 10.90415 | -64.00837 | 695 ft | 139 kts | 77° |
| 2026-04-23 02:13 | 10.90611 | -63.99869 | 491 ft | 140 kts | 77° |
| 2026-04-23 02:13 | 10.90805 | -63.98904 | 312 ft | 139 kts | 77° |
| 2026-04-23 02:13 | 10.91006 | -63.97942 | 103 ft | 138 kts | 78° |
| 2026-04-23 02:14 | 10.91185 | -63.97076 | 67 ft | 105 kts | 81° |
| 2026-04-23 02:14 | 10.91283 | -63.96564 | 57 ft | 43 kts | 78° |
| 2026-04-23 02:14 | 10.91328 | -63.96462 | 55 ft | 11 kts | 7° |
| 2026-04-23 02:14 | 10.91409 | -63.96477 | 58 ft | 12 kts | 348° |
| 2026-04-23 02:15 | 10.91435 | -63.96484 | 58 ft | 7 kts | 342° |
| 2026-04-23 02:15 | 10.91461 | -63.96550 | 58 ft | 14 kts | 258° |
| 2026-04-23 02:15 | 10.91437 | -63.96654 | 59 ft | 16 kts | 257° |
| 2026-04-23 02:16 | 10.91418 | -63.96760 | 60 ft | 15 kts | 259° |
| 2026-04-23 02:16 | 10.91397 | -63.96862 | 57 ft | 15 kts | 257° |
| 2026-04-23 02:16 | 10.91377 | -63.96971 | 61 ft | 15 kts | 275° |
| 2026-04-23 02:16 | 10.91441 | -63.97012 | 60 ft | 12 kts | 12° |
| 2026-04-23 02:17 | 10.91502 | -63.96954 | 60 ft | 12 kts | 52° |
| 2026-04-23 02:17 | 10.91560 | -63.96937 | 59 ft | 6 kts | 346° |
| 2026-04-23 02:17 | 10.91570 | -63.96940 | 60 ft | 0 kts | 346° |